الصفحة الرئيسية
METAR-TAF:

METAR-TAF

مطار :

هلسنكي, فنلندا

مطار هلسنكي فانتا

دائرة عرض: 60-19N, خط طول: 024-58E, ارتفاع: 51 متر

مراقبة الطقس الحالي

تاريخ ووقت الإصدار 30 دقيقة قبل الساعة 08:20UTC
ريح 2 عقدة من الغرب/الشمال الغربي
درجة الحرارة -19°درجة مئوية
الرطوبة 77%
ضغط 1031 hPa
الرؤية 10 كم أو أكثر
الغيوم لا تقل 1500 م ولا وجود لمزنة ركامية السحاب الأسود

METAR: EFHK 220820Z 30002KT CAVOK M19/M22 Q1031 NOSIG

زمن: 10:50 (08:50 UTC)

توقعات

تاريخ ووقت الإصدار 19 دقيقة قبل الساعة 08:31UTC
التوقعات صالحة من22 الساعة 09 UTC إلى 23 الساعة 09 UTC
ريح 2 عقدة من الغرب/الشمال الغربي
الرؤية 10 كم أو أكثر
الغيوم لا تقل 1500 م ولا وجود لمزنة ركامية السحاب الأسود
مؤقت
من 23 الساعة 03 UTC إلى 23 الساعة 09 UTC
الرؤية: 4000 متر
غيوم مفككة على ارتفاع 800 قدم
ثلوج خفيفة

TAF: EFHK 220831Z 2209/2309 30002KT CAVOK TEMPO 2303/2309 4000 -SN BKN008

أرصاد الطقس والتوقعات من أكثر من 4000 مطار (تقارير الطقس للمطار METAR والتنبؤ بالطقس بالمطارTAF).

المحطات المتاحة هي النقط الصفراء والحمراء على الخريطة.

حرك المؤشر فوق النقطة لمعرفة اسم المحطة.

ثم انقر لمعرفة أرصاد وتوقعات الطقس.

لتغيير الخارطة: اضغط على الأزرار الخضراء مع رمز الصليب الأسود للتكبير. على الزر الأخضر مع شرطة للتصغير، أو على الأسهم الخضراء للخرائط المجاورة.


METAR-TAF: